createdAt,value
2023-03-17T00:01:51.670Z,99414.78
2023-03-17T00:06:56.894Z,99401.00
2023-03-17T00:12:00.360Z,99400.22
2023-03-17T00:17:03.251Z,99413.25
2023-03-17T00:22:13.960Z,99391.03
2023-03-17T00:27:18.156Z,99396.03
2023-03-17T00:32:22.835Z,99402.16
2023-03-17T00:37:27.577Z,99401.41
2023-03-17T00:42:31.768Z,99406.75
2023-03-17T00:47:34.551Z,99404.44
2023-03-17T00:52:37.331Z,99398.31
2023-03-17T00:57:41.463Z,99409.81
2023-03-17T01:02:45.242Z,99409.78
2023-03-17T01:07:53.113Z,99413.63
2023-03-17T01:12:58.222Z,99417.47
2023-03-17T01:18:03.042Z,99399.84
2023-03-17T01:23:06.009Z,99425.91
2023-03-17T01:28:14.513Z,99419.38
2023-03-17T01:33:17.414Z,99440.81
2023-03-17T01:38:20.354Z,99436.22
2023-03-17T01:43:27.941Z,99434.31
2023-03-17T01:48:35.362Z,99426.28
2023-03-17T01:53:39.947Z,99428.97
2023-03-17T01:58:45.801Z,99418.25
2023-03-17T02:03:48.950Z,99422.06
2023-03-17T02:08:52.396Z,99443.88
2023-03-17T02:13:55.302Z,99432.41
2023-03-17T02:18:58.238Z,99439.63
2023-03-17T02:24:05.606Z,99428.16
2023-03-17T02:29:08.604Z,99431.25
2023-03-17T02:34:12.070Z,99417.09
2023-03-17T02:39:14.870Z,99421.69
2023-03-17T02:44:18.287Z,99428.56
2023-03-17T02:49:42.134Z,99400.59
2023-03-17T02:54:44.985Z,99421.69
2023-03-17T02:59:47.840Z,99418.63
2023-03-17T03:04:51.002Z,99400.63
2023-03-17T03:09:53.832Z,99461.88
2023-03-17T03:14:56.694Z,99422.06
2023-03-17T03:20:00.260Z,99413.25
2023-03-17T03:25:03.277Z,99438.50
2023-03-17T03:30:08.233Z,99414.03
2023-03-17T03:35:11.821Z,99404.44
2023-03-17T03:40:14.942Z,99419.75
2023-03-17T03:45:18.523Z,99460.72
2023-03-17T03:50:22.112Z,99424.75
2023-03-17T03:55:25.237Z,99435.84
2023-03-17T04:00:28.358Z,99443.88
2023-03-17T04:05:31.542Z,99450.34
2023-03-17T04:10:34.800Z,99430.84
2023-03-17T04:15:37.819Z,99453.81
2023-03-17T04:20:40.939Z,99451.50
2023-03-17T04:25:43.915Z,99443.88
2023-03-17T04:30:47.238Z,99455.34
2023-03-17T04:35:50.072Z,99464.53
2023-03-17T04:40:53.141Z,99464.91
2023-03-17T04:45:56.383Z,99447.31
2023-03-17T04:50:59.696Z,99484.41
2023-03-17T04:56:02.556Z,99450.38
2023-03-17T05:01:05.705Z,99474.09
2023-03-17T05:06:27.070Z,99461.47
2023-03-17T05:11:30.007Z,99443.88
2023-03-17T05:16:33.072Z,99463.00
2023-03-17T05:21:35.902Z,99480.59
2023-03-17T05:26:39.073Z,99483.66
2023-03-17T05:32:00.189Z,99484.78
2023-03-17T05:37:03.646Z,99498.84
2023-03-17T05:42:07.016Z,99525.56
2023-03-17T05:47:09.896Z,99514.13
2023-03-17T05:52:13.096Z,99490.75
2023-03-17T05:57:16.501Z,99521.34
2023-03-17T06:02:19.494Z,99502.63
2023-03-17T06:07:22.885Z,99490.78
2023-03-17T06:12:26.043Z,99531.72
2023-03-17T06:17:28.922Z,99513.00
2023-03-17T06:22:32.140Z,99507.34
2023-03-17T06:27:35.106Z,99518.44
2023-03-17T06:32:38.209Z,99515.38
2023-03-17T06:37:41.806Z,99504.34
2023-03-17T06:42:44.709Z,99523.84
2023-03-17T06:47:47.574Z,99504.75
2023-03-17T06:52:51.006Z,99500.56
2023-03-17T06:58:13.426Z,99482.53
2023-03-17T07:03:17.149Z,99475.63
2023-03-17T07:08:20.233Z,99488.28
2023-03-17T07:13:23.760Z,99488.66
2023-03-17T07:18:27.158Z,99464.88
2023-03-17T07:23:30.871Z,99527.72
2023-03-17T07:28:34.236Z,99530.41
2023-03-17T07:33:57.690Z,99526.94
2023-03-17T07:39:01.716Z,99471.69
2023-03-17T07:44:04.857Z,99513.75
2023-03-17T07:49:07.880Z,99523.03
2023-03-17T07:54:14.907Z,99526.09
2023-03-17T07:59:18.523Z,99522.69
2023-03-17T08:04:21.346Z,99513.84
2023-03-17T08:09:24.303Z,99520.00
2023-03-17T08:14:27.259Z,99561.78
2023-03-17T08:19:48.625Z,99548.41
2023-03-17T08:24:52.391Z,99515.00
2023-03-17T08:29:55.990Z,99511.09
2023-03-17T08:34:59.003Z,99518.38
2023-03-17T08:40:01.840Z,99529.88
2023-03-17T08:45:06.988Z,99547.91
2023-03-17T08:50:15.795Z,99551.38
2023-03-17T08:55:19.733Z,99551.00
2023-03-17T09:00:23.030Z,99561.38
2023-03-17T09:05:26.922Z,99551.78
2023-03-17T09:10:30.638Z,99552.16
2023-03-17T09:15:37.832Z,99557.97
2023-03-17T09:20:40.900Z,99543.03
2023-03-17T09:25:43.814Z,99546.84
2023-03-17T09:30:47.048Z,99545.72
2023-03-17T09:35:52.511Z,99549.13
2023-03-17T09:41:23.686Z,99542.22
2023-03-17T09:46:45.225Z,99528.44
2023-03-17T09:51:49.943Z,99515.00
2023-03-17T09:57:02.597Z,99542.22
2023-03-17T10:02:27.277Z,99564.09
2023-03-17T10:08:19.055Z,99561.78
2023-03-17T10:13:48.631Z,99541.47
2023-03-17T10:19:35.569Z,99539.59
2023-03-17T10:24:43.396Z,99549.56
2023-03-17T10:29:48.523Z,99549.56
2023-03-17T10:34:52.116Z,99544.97
2023-03-17T10:39:57.516Z,99533.09
2023-03-17T10:45:13.459Z,99531.97
2023-03-17T10:50:16.690Z,99542.28
2023-03-17T10:55:22.484Z,99547.66
2023-03-17T11:05:33.495Z,99545.75
2023-03-17T11:10:57.169Z,99526.19
2023-03-17T11:16:22.427Z,99535.78
2023-03-17T11:21:48.767Z,99552.25
2023-03-17T11:27:16.514Z,99548.03
2023-03-17T11:32:45.833Z,99543.03
2023-03-17T11:38:04.415Z,99548.00
2023-03-17T11:43:16.257Z,99544.53
2023-03-17T11:48:37.787Z,99555.22
2023-03-17T11:54:14.510Z,99556.72
2023-03-17T11:59:38.513Z,99543.72
2023-03-17T12:05:10.827Z,99556.31
2023-03-17T12:10:22.727Z,99555.44
2023-03-17T12:15:36.852Z,99556.53
2023-03-17T12:20:49.626Z,99575.16
2023-03-17T12:26:00.379Z,99583.56
2023-03-17T12:31:06.949Z,99593.59
2023-03-17T12:36:15.216Z,99594.34
2023-03-17T12:41:33.674Z,99611.91
2023-03-17T12:46:39.752Z,99610.00
2023-03-17T12:52:10.518Z,99593.16
2023-03-17T12:57:20.909Z,99599.97
2023-03-17T13:02:29.827Z,99599.13
2023-03-17T13:08:00.037Z,99603.28
2023-03-17T13:13:21.913Z,99602.84
2023-03-17T13:18:47.444Z,99621.03
2023-03-17T13:24:23.026Z,99643.75
2023-03-17T13:29:46.338Z,99638.09
2023-03-17T13:34:56.355Z,99645.72
2023-03-17T13:40:10.797Z,99644.19
2023-03-17T13:45:24.680Z,99636.13
2023-03-17T13:50:46.920Z,99643.81
2023-03-17T13:56:28.097Z,99641.59
2023-03-17T14:01:59.900Z,99638.91
2023-03-17T14:07:11.587Z,99657.66
2023-03-17T14:12:39.767Z,99650.78
2023-03-17T14:17:50.768Z,99647.31
2023-03-17T14:23:01.499Z,99654.97
2023-03-17T14:28:10.020Z,99660.84
2023-03-17T14:33:31.544Z,99660.41
2023-03-17T14:38:37.910Z,99686.09
2023-03-17T14:43:41.944Z,99670.06
2023-03-17T14:48:47.502Z,99685.19
2023-03-17T14:53:52.627Z,99699.44
2023-03-17T14:59:04.380Z,99694.75
2023-03-17T15:04:17.573Z,99702.00
2023-03-17T15:09:27.292Z,99712.69
2023-03-17T15:14:39.065Z,99715.84
2023-03-17T15:19:49.203Z,99724.66
2023-03-17T15:25:00.242Z,99740.03
2023-03-17T15:30:03.597Z,99738.50
2023-03-17T15:35:08.153Z,99757.22
2023-03-17T15:40:11.911Z,99756.75
2023-03-17T15:45:17.247Z,99768.19
2023-03-17T15:50:28.721Z,99773.03
2023-03-17T15:55:31.963Z,99770.00
2023-03-17T16:00:35.155Z,99767.28
2023-03-17T16:05:38.029Z,99774.25
2023-03-17T16:10:41.507Z,99779.59
2023-03-17T16:15:53.126Z,99790.34
2023-03-17T16:20:57.247Z,99799.06
2023-03-17T16:26:13.702Z,99800.13
2023-03-17T16:31:19.949Z,99809.97
2023-03-17T16:36:24.582Z,99818.69
2023-03-17T16:41:28.567Z,99814.38
2023-03-17T16:46:35.500Z,99828.09
2023-03-17T16:51:38.613Z,99836.78
2023-03-17T16:56:42.448Z,99826.25
2023-03-17T17:01:45.445Z,99838.66
2023-03-17T17:06:48.404Z,99857.53
2023-03-17T17:12:10.456Z,99874.97
2023-03-17T17:17:13.895Z,99887.19
2023-03-17T17:22:16.953Z,99888.75
2023-03-17T17:27:19.784Z,99892.97
2023-03-17T17:32:24.463Z,99937.41
2023-03-17T17:37:27.678Z,99912.56
2023-03-17T17:42:30.888Z,99918.41
2023-03-17T17:47:33.817Z,99935.06
2023-03-17T17:52:36.804Z,99937.41
2023-03-17T17:57:39.757Z,99955.13
2023-03-17T18:02:43.119Z,99968.00
2023-03-17T18:07:46.009Z,99955.91
2023-03-17T18:13:07.874Z,99979.53
2023-03-17T18:18:11.152Z,99954.19
2023-03-17T18:23:16.200Z,99988.78
2023-03-17T18:28:19.047Z,99985.53
2023-03-17T18:33:22.781Z,99997.19
2023-03-17T18:38:25.779Z,99996.59
2023-03-17T18:43:28.789Z,99997.25
2023-03-17T18:48:31.716Z,100011.72
2023-03-17T18:53:53.336Z,100028.16
2023-03-17T18:58:57.485Z,100028.19
2023-03-17T19:04:00.494Z,100030.88
2023-03-17T19:09:03.990Z,100043.28
2023-03-17T19:14:08.710Z,100048.97
2023-03-17T19:19:11.622Z,100017.13
2023-03-17T19:24:15.177Z,100035.81
2023-03-17T19:29:18.050Z,100043.22
2023-03-17T19:34:21.475Z,100067.91
2023-03-17T19:39:24.450Z,100042.34
2023-03-17T19:44:27.479Z,100051.06
2023-03-17T19:49:30.315Z,100039.00
2023-03-17T19:54:33.427Z,100051.31
2023-03-17T19:59:36.236Z,100039.47
2023-03-17T20:04:39.134Z,100054.28
2023-03-17T20:09:42.524Z,100049.63
2023-03-17T20:14:45.393Z,100053.06
2023-03-17T20:19:48.335Z,100069.22
2023-03-17T20:24:51.383Z,100065.25
2023-03-17T20:29:54.873Z,100062.03
2023-03-17T20:34:58.512Z,100070.84
2023-03-17T20:40:03.220Z,100058.22
2023-03-17T20:45:07.681Z,100069.41
2023-03-17T20:50:31.165Z,100052.03
2023-03-17T20:55:34.196Z,100067.41
2023-03-17T21:00:37.324Z,100062.09
2023-03-17T21:05:40.818Z,100086.72
2023-03-17T21:10:43.797Z,100085.94
2023-03-17T21:15:47.623Z,100074.53
2023-03-17T21:20:51.075Z,100094.94
2023-03-17T21:25:57.088Z,100083.75
2023-03-17T21:31:02.719Z,100079.72
2023-03-17T21:36:07.052Z,100097.31
2023-03-17T21:41:34.262Z,100081.25
2023-03-17T21:46:37.446Z,100108.28
2023-03-17T21:51:40.818Z,100123.72
2023-03-17T21:56:44.744Z,100111.25
2023-03-17T22:01:48.020Z,100098.56
2023-03-17T22:06:52.288Z,100085.28
2023-03-17T22:11:55.306Z,100116.03
2023-03-17T22:16:58.226Z,100107.44
2023-03-17T22:22:02.131Z,100121.97
2023-03-17T22:27:06.109Z,100128.66
2023-03-17T22:32:09.279Z,100128.66
2023-03-17T22:37:13.373Z,100130.06
2023-03-17T22:42:16.773Z,100139.41
2023-03-17T22:47:19.640Z,100140.41
2023-03-17T22:52:22.524Z,100135.09
2023-03-17T22:57:25.559Z,100137.63
2023-03-17T23:02:28.417Z,100148.59
2023-03-17T23:07:35.557Z,100152.69
2023-03-17T23:12:44.266Z,100150.19
2023-03-17T23:17:47.669Z,100159.91
2023-03-17T23:22:50.705Z,100176.59
2023-03-17T23:27:53.684Z,100206.06
2023-03-17T23:32:56.658Z,100186.53
2023-03-17T23:38:00.458Z,100179.09
2023-03-17T23:43:21.981Z,100165.81
2023-03-17T23:48:24.745Z,100171.63
2023-03-17T23:53:28.626Z,100163.25
2023-03-17T23:58:32.140Z,100211.97
